Time,TemperatureF,DewpointF,PressureIn,WindDirection,WindDirectionDegrees,WindSpeedMPH,WindSpeedGustMPH,Humidity,HourlyPrecipIn,Conditions,Clouds,dailyrainin,SoftwareType,DateUTC
2013-03-08 01:32:00,42.0,42.0,26.40,SW,223,6.0,12.0,100,-99.99,,,-99.99,,2013-03-08 09:32:00,
2013-03-08 01:42:00,41.0,41.0,26.40,SSW,210,8.0,18.0,100,-99.99,,,-99.99,,2013-03-08 09:42:00,
2013-03-08 01:52:00,40.0,40.0,26.37,SSW,207,9.0,17.0,100,-99.99,,,-99.99,,2013-03-08 09:52:00,
2013-03-08 02:01:00,40.0,40.0,26.37,SW,214,9.0,18.0,100,-99.99,,,-99.99,,2013-03-08 10:01:00,
2013-03-08 02:11:00,40.0,40.0,26.37,SW,219,9.0,18.0,100,-99.99,,,-99.99,,2013-03-08 10:11:00,
2013-03-08 02:21:00,40.0,40.0,26.37,SW,228,8.0,13.0,100,-99.99,,,-99.99,,2013-03-08 10:21:00,
2013-03-08 02:31:00,40.0,40.0,26.40,WSW,243,10.0,18.0,100,-99.99,,,-99.99,,2013-03-08 10:31:00,
2013-03-08 02:41:00,39.0,39.0,26.37,WSW,247,9.0,16.0,100,-99.99,,,-99.99,,2013-03-08 10:41:00,
2013-03-08 02:51:00,38.0,38.0,26.37,WSW,247,10.0,19.0,100,-99.99,,,-99.99,,2013-03-08 10:51:00,
2013-03-08 03:01:00,38.0,38.0,26.37,WSW,247,10.0,19.0,100,-99.99,,,-99.99,,2013-03-08 11:01:00,
2013-03-08 03:11:00,37.0,37.0,26.37,SW,231,7.0,14.0,100,-99.99,,,-99.99,,2013-03-08 11:11:00,
2013-03-08 03:21:00,37.0,37.0,26.37,SW,217,6.0,11.0,100,-99.99,,,-99.99,,2013-03-08 11:21:00,
2013-03-08 03:32:00,37.0,37.0,26.37,SW,217,5.0,11.0,100,-99.99,,,-99.99,,2013-03-08 11:32:00,
2013-03-08 03:41:00,37.0,37.0,26.37,SW,219,6.0,12.0,100,-99.99,,,-99.99,,2013-03-08 11:41:00,
2013-03-08 03:52:00,37.0,37.0,26.37,SW,232,6.0,13.0,100,-99.99,,,-99.99,,2013-03-08 11:52:00,
2013-03-08 04:01:00,37.0,37.0,26.37,SW,223,6.0,11.0,100,-99.99,,,-99.99,,2013-03-08 12:01:00,
2013-03-08 04:11:00,37.0,37.0,26.40,SW,232,7.0,16.0,100,-99.99,,,-99.99,,2013-03-08 12:11:00,
2013-03-08 04:22:00,37.0,37.0,26.40,SW,225,8.0,16.0,100,-99.99,,,-99.99,,2013-03-08 12:22:00,
2013-03-08 04:32:00,37.0,37.0,26.40,SW,220,7.0,16.0,100,-99.99,,,-99.99,,2013-03-08 12:32:00,
2013-03-08 04:42:00,37.0,37.0,26.40,SW,218,9.0,21.0,100,-99.99,,,-99.99,,2013-03-08 12:42:00,
2013-03-08 04:52:00,37.0,37.0,26.40,SW,215,8.0,17.0,100,-99.99,,,-99.99,,2013-03-08 12:52:00,
2013-03-08 05:01:00,37.0,37.0,26.40,SW,232,9.0,19.0,100,-99.99,,,-99.99,,2013-03-08 13:01:00,
2013-03-08 05:11:00,38.0,38.0,26.40,SW,232,9.0,18.0,100,-99.99,,,-99.99,,2013-03-08 13:11:00,
2013-03-08 05:21:00,38.0,38.0,26.40,WSW,240,10.0,17.0,100,-99.99,,,-99.99,,2013-03-08 13:21:00,
2013-03-08 05:32:00,38.0,38.0,26.40,WSW,240,10.0,16.0,100,-99.99,,,-99.99,,2013-03-08 13:32:00,
2013-03-08 05:42:00,38.0,38.0,26.40,WSW,241,10.0,16.0,100,-99.99,,,-99.99,,2013-03-08 13:42:00,
2013-03-08 05:52:00,38.0,38.0,26.40,WSW,238,11.0,19.0,100,-99.99,,,-99.99,,2013-03-08 13:52:00,
2013-03-08 06:02:00,38.0,38.0,26.40,WSW,243,12.0,24.0,100,-99.99,,,-99.99,,2013-03-08 14:02:00,
2013-03-08 06:11:00,36.0,36.0,26.40,WSW,246,12.0,23.0,100,-99.99,,,-99.99,,2013-03-08 14:11:00,
2013-03-08 06:21:00,36.0,36.0,26.40,WSW,239,11.0,22.0,100,-99.99,,,-99.99,,2013-03-08 14:21:00,
2013-03-08 06:32:00,36.0,36.0,26.37,WSW,243,12.0,24.0,100,-99.99,,,-99.99,,2013-03-08 14:32:00,
2013-03-08 06:42:00,36.0,36.0,26.37,WSW,248,10.0,18.0,100,-99.99,,,-99.99,,2013-03-08 14:42:00,
2013-03-08 06:52:00,36.0,36.0,26.37,WSW,253,12.0,21.0,100,-99.99,,,-99.99,,2013-03-08 14:52:00,
2013-03-08 07:02:00,36.0,36.0,26.37,West,259,11.0,23.0,100,-99.99,,,-99.99,,2013-03-08 15:02:00,
2013-03-08 07:11:00,35.0,35.0,26.37,West,262,11.0,19.0,100,-99.99,,,-99.99,,2013-03-08 15:11:00,
2013-03-08 07:21:00,36.0,36.0,26.37,West,266,10.0,20.0,100,-99.99,,,-99.99,,2013-03-08 15:21:00,
2013-03-08 07:31:00,35.0,35.0,26.40,West,272,10.0,18.0,100,-99.99,,,-99.99,,2013-03-08 15:31:00,
2013-03-08 07:42:00,35.0,35.0,26.40,West,269,10.0,17.0,100,-99.99,,,-99.99,,2013-03-08 15:42:00,
2013-03-08 07:52:00,36.0,36.0,26.40,West,265,11.0,21.0,100,-99.99,,,-99.99,,2013-03-08 15:52:00,
2013-03-08 08:01:00,36.0,36.0,26.40,West,264,11.0,21.0,100,-99.99,,,-99.99,,2013-03-08 16:01:00,
2013-03-08 08:11:00,36.0,36.0,26.37,West,266,11.0,18.0,100,-99.99,,,-99.99,,2013-03-08 16:11:00,
2013-03-08 08:21:00,36.0,36.0,26.37,West,263,10.0,19.0,100,-99.99,,,-99.99,,2013-03-08 16:21:00,
2013-03-08 08:31:00,36.0,36.0,26.37,WSW,258,11.0,19.0,100,-99.99,,,-99.99,,2013-03-08 16:31:00,
2013-03-08 08:41:00,37.0,37.0,26.37,WSW,257,10.0,18.0,100,-99.99,,,-99.99,,2013-03-08 16:41:00,
2013-03-08 08:51:00,37.0,37.0,26.37,WSW,250,10.0,18.0,100,-99.99,,,-99.99,,2013-03-08 16:51:00,
2013-03-08 09:02:00,38.0,38.0,26.34,WSW,247,9.0,17.0,100,-99.99,,,-99.99,,2013-03-08 17:02:00,
2013-03-08 09:11:00,37.0,37.0,26.34,WSW,247,9.0,16.0,100,-99.99,,,-99.99,,2013-03-08 17:11:00,
2013-03-08 09:21:00,37.0,37.0,26.34,WSW,244,9.0,15.0,100,-99.99,,,-99.99,,2013-03-08 17:21:00,
2013-03-08 09:31:00,38.0,38.0,26.34,WSW,238,9.0,18.0,100,-99.99,,,-99.99,,2013-03-08 17:31:00,
2013-03-08 09:41:00,39.0,39.0,26.31,WSW,252,9.0,16.0,100,-99.99,,,-99.99,,2013-03-08 17:41:00,
2013-03-08 09:52:00,39.0,37.0,26.23,WSW,251,10.0,19.0,94,-99.99,,,-99.99,,2013-03-08 17:52:00,
2013-03-08 10:01:00,35.0,34.0,26.26,West,266,10.0,22.0,97,-99.99,,,-99.99,,2013-03-08 18:01:00,
2013-03-08 10:11:00,33.0,33.0,26.34,WSW,253,5.0,11.0,100,-99.99,,,-99.99,,2013-03-08 18:11:00,
2013-03-08 10:21:00,34.0,34.0,26.37,West,271,8.0,18.0,100,-99.99,,,-99.99,,2013-03-08 18:21:00,
2013-03-08 10:31:00,34.0,34.0,26.37,WSW,257,11.0,20.0,100,-99.99,,,-99.99,,2013-03-08 18:31:00,
2013-03-08 10:42:00,34.0,34.0,26.37,WSW,257,11.0,20.0,100,-99.99,,,-99.99,,2013-03-08 18:42:00,
2013-03-08 10:51:00,34.0,34.0,26.37,SW,234,8.0,16.0,100,-99.99,,,-99.99,,2013-03-08 18:51:00,
2013-03-08 11:01:00,35.0,35.0,26.37,WSW,239,9.0,15.0,100,-99.99,,,-99.99,,2013-03-08 19:01:00,
2013-03-08 11:11:00,36.0,36.0,26.37,WSW,240,8.0,16.0,100,-99.99,,,-99.99,,2013-03-08 19:11:00,
2013-03-08 11:21:00,36.0,36.0,26.34,WSW,246,9.0,16.0,100,-99.99,,,-99.99,,2013-03-08 19:21:00,
2013-03-08 11:31:00,36.0,36.0,26.37,West,263,8.0,15.0,100,-99.99,,,-99.99,,2013-03-08 19:31:00,
2013-03-08 11:41:00,36.0,36.0,26.37,WSW,244,7.0,14.0,100,-99.99,,,-99.99,,2013-03-08 19:41:00,
2013-03-08 11:51:00,36.0,36.0,26.37,WSW,249,6.0,12.0,100,-99.99,,,-99.99,,2013-03-08 19:51:00,
2013-03-08 12:01:00,36.0,36.0,26.37,WSW,252,8.0,13.0,100,-99.99,,,-99.99,,2013-03-08 20:01:00,
2013-03-08 12:11:00,34.0,34.0,26.34,SW,231,10.0,18.0,100,-99.99,,,-99.99,,2013-03-08 20:11:00,
2013-03-08 12:21:00,32.0,32.0,26.34,WSW,240,6.0,13.0,100,-99.99,,,-99.99,,2013-03-08 20:21:00,
2013-03-08 12:31:00,32.0,32.0,26.37,WSW,256,6.0,14.0,100,-99.99,,,-99.99,,2013-03-08 20:31:00,
2013-03-08 12:41:00,32.0,32.0,26.37,WSW,252,6.0,12.0,100,-99.99,,,-99.99,,2013-03-08 20:41:00,
2013-03-08 12:52:00,33.0,33.0,26.37,WSW,246,5.0,10.0,100,-99.99,,,-99.99,,2013-03-08 20:52:00,
2013-03-08 13:01:00,33.0,33.0,26.37,WSW,244,6.0,11.0,100,-99.99,,,-99.99,,2013-03-08 21:01:00,
2013-03-08 13:11:00,33.0,33.0,26.37,WSW,242,4.0,8.0,100,-99.99,,,-99.99,,2013-03-08 21:11:00,
2013-03-08 13:21:00,33.0,33.0,26.37,WSW,239,5.0,10.0,100,-99.99,,,-99.99,,2013-03-08 21:21:00,
2013-03-08 13:32:00,33.0,33.0,26.37,WSW,238,5.0,10.0,100,-99.99,,,-99.99,,2013-03-08 21:32:00,
2013-03-08 13:41:00,33.0,33.0,26.37,WSW,238,5.0,10.0,100,-99.99,,,-99.99,,2013-03-08 21:41:00,
2013-03-08 13:51:00,33.0,33.0,26.37,SW,236,6.0,11.0,100,-99.99,,,-99.99,,2013-03-08 21:51:00,
2013-03-08 14:01:00,33.0,33.0,26.37,WSW,237,5.0,9.0,100,-99.99,,,-99.99,,2013-03-08 22:01:00,
2013-03-08 14:11:00,33.0,33.0,26.37,WSW,238,8.0,16.0,100,-99.99,,,-99.99,,2013-03-08 22:11:00,
2013-03-08 14:21:00,35.0,35.0,26.40,WSW,245,9.0,15.0,100,-99.99,,,-99.99,,2013-03-08 22:21:00,
2013-03-08 14:32:00,35.0,35.0,26.40,WSW,244,8.0,17.0,100,-99.99,,,-99.99,,2013-03-08 22:32:00,
2013-03-08 14:41:00,35.0,35.0,26.40,WSW,245,8.0,14.0,100,-99.99,,,-99.99,,2013-03-08 22:41:00,
2013-03-08 14:52:00,34.0,34.0,26.40,WSW,249,6.0,12.0,100,-99.99,,,-99.99,,2013-03-08 22:52:00,
2013-03-08 15:01:00,35.0,35.0,26.40,WSW,254,7.0,14.0,100,-99.99,,,-99.99,,2013-03-08 23:01:00,
2013-03-08 15:11:00,36.0,36.0,26.40,SW,235,7.0,13.0,100,-99.99,,,-99.99,,2013-03-08 23:11:00,
2013-03-08 15:21:00,33.0,33.0,26.37,SW,216,6.0,12.0,100,-99.99,,,-99.99,,2013-03-08 23:21:00,
2013-03-08 15:31:00,33.0,33.0,26.37,SW,223,6.0,13.0,100,-99.99,,,-99.99,,2013-03-08 23:31:00,
2013-03-08 15:41:00,33.0,33.0,26.37,SW,235,6.0,12.0,100,-99.99,,,-99.99,,2013-03-08 23:41:00,
2013-03-08 15:52:00,33.0,33.0,26.37,WSW,250,6.0,13.0,100,-99.99,,,-99.99,,2013-03-08 23:52:00,
2013-03-08 16:01:00,33.0,33.0,26.37,WSW,250,6.0,13.0,100,-99.99,,,-99.99,,2013-03-09 00:01:00,
2013-03-08 16:11:00,34.0,34.0,26.37,WSW,244,8.0,14.0,100,-99.99,,,-99.99,,2013-03-09 00:11:00,
2013-03-08 16:21:00,33.0,33.0,26.37,WSW,253,8.0,15.0,100,-99.99,,,-99.99,,2013-03-09 00:21:00,
2013-03-08 16:31:00,33.0,33.0,26.40,WSW,255,10.0,17.0,100,-99.99,,,-99.99,,2013-03-09 00:31:00,
2013-03-08 16:42:00,34.0,34.0,26.40,WSW,252,8.0,16.0,100,-99.99,,,-99.99,,2013-03-09 00:42:00,
2013-03-08 16:50:00,35.0,35.0,26.40,West,263,9.0,15.0,100,-99.99,,,-99.99,,2013-03-09 00:50:00,
2013-03-08 16:51:00,34.0,34.0,26.40,WSW,256,9.0,16.0,100,-99.99,,,-99.99,,2013-03-09 00:51:00,
2013-03-08 17:01:00,34.0,34.0,26.40,WSW,258,9.0,18.0,100,-99.99,,,-99.99,,2013-03-09 01:01:00,
2013-03-08 17:12:00,34.0,34.0,26.40,West,260,10.0,18.0,100,-99.99,,,-99.99,,2013-03-09 01:12:00,
2013-03-08 17:21:00,35.0,35.0,26.40,West,263,9.0,15.0,100,-99.99,,,-99.99,,2013-03-09 01:21:00,
2013-03-08 17:31:00,35.0,35.0,26.40,West,263,9.0,15.0,100,-99.99,,,-99.99,,2013-03-09 01:31:00,
2013-03-08 17:41:00,35.0,35.0,26.40,West,263,9.0,15.0,100,-99.99,,,-99.99,,2013-03-09 01:41:00,
2013-03-08 19:11:00,35.0,35.0,26.40,WSW,248,12.0,19.0,100,-99.99,,,-99.99,,2013-03-09 03:11:00,
2013-03-08 19:21:00,35.0,35.0,26.40,WSW,248,12.0,19.0,100,-99.99,,,-99.99,,2013-03-09 03:21:00,
2013-03-08 19:31:00,35.0,35.0,26.40,WSW,248,11.0,19.0,100,-99.99,,,-99.99,,2013-03-09 03:31:00,
2013-03-08 19:41:00,34.0,34.0,26.40,WSW,249,10.0,18.0,100,-99.99,,,-99.99,,2013-03-09 03:41:00,
2013-03-08 19:52:00,34.0,34.0,26.40,WSW,257,10.0,21.0,100,-99.99,,,-99.99,,2013-03-09 03:52:00,
2013-03-08 20:01:00,35.0,35.0,26.40,WSW,256,10.0,18.0,100,-99.99,,,-99.99,,2013-03-09 04:01:00,
2013-03-08 20:11:00,35.0,35.0,26.40,WSW,257,10.0,19.0,100,-99.99,,,-99.99,,2013-03-09 04:11:00,
2013-03-08 20:22:00,35.0,35.0,26.40,WSW,254,11.0,20.0,100,-99.99,,,-99.99,,2013-03-09 04:22:00,
2013-03-08 20:31:00,35.0,35.0,26.40,WSW,258,12.0,21.0,100,-99.99,,,-99.99,,2013-03-09 04:31:00,
2013-03-08 20:41:00,35.0,35.0,26.40,WSW,254,11.0,19.0,100,-99.99,,,-99.99,,2013-03-09 04:41:00,
2013-03-08 20:51:00,35.0,35.0,26.40,WSW,248,11.0,18.0,100,-99.99,,,-99.99,,2013-03-09 04:51:00,
2013-03-08 21:01:00,35.0,35.0,26.40,WSW,248,11.0,18.0,100,-99.99,,,-99.99,,2013-03-09 05:01:00,
2013-03-08 21:11:00,35.0,35.0,26.40,WSW,246,11.0,23.0,100,-99.99,,,-99.99,,2013-03-09 05:11:00,
2013-03-08 21:21:00,34.0,34.0,26.40,WSW,249,10.0,21.0,100,-99.99,,,-99.99,,2013-03-09 05:21:00,
2013-03-08 21:31:00,34.0,34.0,26.40,WSW,246,8.0,16.0,100,-99.99,,,-99.99,,2013-03-09 05:31:00,
2013-03-08 21:42:00,34.0,34.0,26.40,WSW,246,10.0,20.0,100,-99.99,,,-99.99,,2013-03-09 05:42:00,
2013-03-08 21:52:00,35.0,35.0,26.40,WSW,246,8.0,15.0,100,-99.99,,,-99.99,,2013-03-09 05:52:00,
2013-03-08 22:01:00,35.0,35.0,26.40,WSW,246,8.0,15.0,100,-99.99,,,-99.99,,2013-03-09 06:01:00,
2013-03-08 22:11:00,35.0,35.0,26.40,WSW,237,9.0,15.0,100,-99.99,,,-99.99,,2013-03-09 06:11:00,
2013-03-08 22:22:00,35.0,35.0,26.40,SW,234,9.0,17.0,100,-99.99,,,-99.99,,2013-03-09 06:22:00,
2013-03-08 22:31:00,35.0,35.0,26.40,SW,235,10.0,19.0,100,-99.99,,,-99.99,,2013-03-09 06:31:00,
2013-03-08 22:42:00,35.0,35.0,26.40,SW,235,10.0,19.0,100,-99.99,,,-99.99,,2013-03-09 06:42:00,
2013-03-08 22:51:00,35.0,35.0,26.40,WSW,237,12.0,22.0,100,-99.99,,,-99.99,,2013-03-09 06:51:00,
2013-03-08 23:01:00,35.0,35.0,26.40,WSW,238,11.0,18.0,100,-99.99,,,-99.99,,2013-03-09 07:01:00,
2013-03-08 23:11:00,35.0,35.0,26.40,SW,233,11.0,19.0,100,-99.99,,,-99.99,,2013-03-09 07:11:00,
2013-03-08 23:21:00,35.0,35.0,26.40,SW,230,11.0,20.0,100,-99.99,,,-99.99,,2013-03-09 07:21:00,
2013-03-08 23:31:00,35.0,35.0,26.40,SW,227,9.0,17.0,100,-99.99,,,-99.99,,2013-03-09 07:31:00,
2013-03-08 23:41:00,35.0,35.0,26.40,SW,227,9.0,17.0,100,-99.99,,,-99.99,,2013-03-09 07:41:00,
2013-03-08 23:51:00,35.0,35.0,26.40,SW,231,10.0,17.0,100,-99.99,,,-99.99,,2013-03-09 07:51:00,